Hovedside
METAR-TAF:

METAR-TAF

Lufthavner :

Teheran, Iran

breddegrad: 35-41N, lengdegrad: 051-21E, høyde over havet: 1204 m

Gjeldene værobservasjon

Denne rapporten ble laget for 17 minutter siden, klokken 23:00 UTC
Vind 8 kt fra Vest-nordvest
Temperatur 24°C
Luftfuktighet 44%
Trykk 1004 hPa
Sikt 10 km eller mer
Spredte skyer i en høyde av 10000 ft

METAR: OIII 142300Z 29008KT 9999 SCT100 24/11 Q1003 A2964 NOSIG

Tid: 03:47 (23:17 UTC)

Varsel

Denne rapporten ble laget for 5 timer og 47 minutter siden, klokken 17:30 UTC
Varsel gyldig fra 14. klokken 18 UTC til 15. klokken 24 UTC
Vind 8 kt fra Vest
Sikt: 7000 m
Blir
fra 15. klokken 01 UTC til 15. klokken 02 UTC
Få skyer i en høyde av 4000 ft
Midlertidig
fra 15. klokken 03 UTC til 15. klokken 05 UTC
Sikt: 5000 m
dis
Midlertidig
fra 15. klokken 16 UTC til 15. klokken 22 UTC
Vind 18 kt fra Vest

TAF: OIII 141730Z 1418/1524 28008KT 7000 NSC BECMG 1501/1502 FEW040 TEMPO 1503/1505 5000 HZ TEMPO 1516/1522 28018KT

Værobservasjoner og værvarsel for over 4000 flyplasser (METAR- og TAF-rapporter).

Tilgjengelige stasjoner er representert av de røde og gule prikkene på kartet.

Hold musepekeren over prikken for å se navnet på stasjonen.

Klikk så for å se værobservasjoner og -varsler.

For å forandre kartet kan du klikke på den grønne knappen med svart kryss for å zoome inn, på den grønne knappen med strek for å zoome ut, eller på de grønne pilene for å se tilstøtende kart.


METAR-TAF: